sensor_id;sensor_type;location;lat;lon;timestamp;pressure;altitude;pressure_sealevel;temperature;humidity
52319;BME280;38258;51.148;14.068;2023-05-18T00:01:20;99185.75;;;6.11;100.00
52319;BME280;38258;51.148;14.068;2023-05-18T00:03:47;99184.75;;;5.86;100.00
52319;BME280;38258;51.148;14.068;2023-05-18T00:06:14;99195.97;;;5.75;100.00
52319;BME280;38258;51.148;14.068;2023-05-18T00:08:40;99195.00;;;5.55;100.00
52319;BME280;38258;51.148;14.068;2023-05-18T00:11:08;99195.03;;;5.59;100.00
52319;BME280;38258;51.148;14.068;2023-05-18T00:13:35;99193.13;;;5.27;100.00
52319;BME280;38258;51.148;14.068;2023-05-18T00:16:01;99190.44;;;5.10;100.00
52319;BME280;38258;51.148;14.068;2023-05-18T00:18:28;99195.56;;;5.05;100.00
52319;BME280;38258;51.148;14.068;2023-05-18T00:20:54;99196.38;;;4.93;100.00
52319;BME280;38258;51.148;14.068;2023-05-18T00:23:24;99205.81;;;4.84;100.00
52319;BME280;38258;51.148;14.068;2023-05-18T00:25:55;99208.34;;;4.80;100.00
52319;BME280;38258;51.148;14.068;2023-05-18T00:28:23;99209.16;;;4.73;100.00
52319;BME280;38258;51.148;14.068;2023-05-18T00:30:50;99205.66;;;4.66;100.00
52319;BME280;38258;51.148;14.068;2023-05-18T00:33:16;99203.00;;;4.59;100.00
52319;BME280;38258;51.148;14.068;2023-05-18T00:35:43;99203.97;;;4.73;100.00
52319;BME280;38258;51.148;14.068;2023-05-18T00:38:10;99196.03;;;4.53;100.00
52319;BME280;38258;51.148;14.068;2023-05-18T00:40:38;99199.47;;;4.49;100.00
52319;BME280;38258;51.148;14.068;2023-05-18T00:43:04;99203.75;;;4.47;100.00
52319;BME280;38258;51.148;14.068;2023-05-18T00:45:32;99208.09;;;4.48;100.00
52319;BME280;38258;51.148;14.068;2023-05-18T00:47:59;99208.00;;;4.40;100.00
52319;BME280;38258;51.148;14.068;2023-05-18T00:50:27;99205.84;;;4.90;100.00
52319;BME280;38258;51.148;14.068;2023-05-18T00:52:53;99211.63;;;4.58;100.00
52319;BME280;38258;51.148;14.068;2023-05-18T00:55:20;99216.78;;;4.56;100.00
52319;BME280;38258;51.148;14.068;2023-05-18T00:57:47;99217.34;;;5.26;100.00
52319;BME280;38258;51.148;14.068;2023-05-18T01:00:14;99210.22;;;5.02;100.00
52319;BME280;38258;51.148;14.068;2023-05-18T01:02:42;99210.38;;;5.17;100.00
52319;BME280;38258;51.148;14.068;2023-05-18T01:05:10;99208.84;;;5.50;100.00
52319;BME280;38258;51.148;14.068;2023-05-18T01:07:38;99215.66;;;5.34;100.00
52319;BME280;38258;51.148;14.068;2023-05-18T01:10:07;99219.16;;;5.44;100.00
52319;BME280;38258;51.148;14.068;2023-05-18T01:12:36;99213.88;;;5.26;100.00
52319;BME280;38258;51.148;14.068;2023-05-18T01:15:07;99215.81;;;5.64;100.00
52319;BME280;38258;51.148;14.068;2023-05-18T01:17:45;99215.66;;;5.34;100.00
52319;BME280;38258;51.148;14.068;2023-05-18T01:20:22;99214.63;;;5.12;100.00
52319;BME280;38258;51.148;14.068;2023-05-18T01:23:06;99219.75;;;5.01;100.00
52319;BME280;38258;51.148;14.068;2023-05-18T01:25:46;99213.78;;;5.12;100.00
52319;BME280;38258;51.148;14.068;2023-05-18T01:28:17;99211.19;;;5.16;100.00
52319;BME280;38258;51.148;14.068;2023-05-18T01:30:45;99217.88;;;4.81;100.00
52319;BME280;38258;51.148;14.068;2023-05-18T01:33:13;99214.31;;;4.72;100.00
52319;BME280;38258;51.148;14.068;2023-05-18T01:35:39;99221.38;;;4.87;100.00
52319;BME280;38258;51.148;14.068;2023-05-18T01:38:13;99214.63;;;5.09;100.00
52319;BME280;38258;51.148;14.068;2023-05-18T01:40:48;99218.75;;;4.82;100.00
52319;BME280;38258;51.148;14.068;2023-05-18T01:43:19;99219.47;;;4.69;100.00
52319;BME280;38258;51.148;14.068;2023-05-18T01:45:51;99214.50;;;4.90;100.00
52319;BME280;38258;51.148;14.068;2023-05-18T01:48:23;99215.34;;;4.89;100.00
52319;BME280;38258;51.148;14.068;2023-05-18T01:50:54;99215.47;;;5.06;100.00
52319;BME280;38258;51.148;14.068;2023-05-18T01:53:25;99216.97;;;4.78;100.00
52319;BME280;38258;51.148;14.068;2023-05-18T01:55:56;99227.47;;;4.90;100.00
52319;BME280;38258;51.148;14.068;2023-05-18T01:58:28;99227.50;;;4.97;100.00
52319;BME280;38258;51.148;14.068;2023-05-18T02:00:55;99221.47;;;4.96;100.00
52319;BME280;38258;51.148;14.068;2023-05-18T02:03:23;99215.50;;;5.14;100.00
52319;BME280;38258;51.148;14.068;2023-05-18T02:05:50;99214.75;;;5.28;100.00
52319;BME280;38258;51.148;14.068;2023-05-18T02:08:17;99218.19;;;5.23;100.00
52319;BME280;38258;51.148;14.068;2023-05-18T02:10:44;99213.84;;;5.19;100.00
52319;BME280;38258;51.148;14.068;2023-05-18T02:13:10;99207.56;;;4.89;100.00
52319;BME280;38258;51.148;14.068;2023-05-18T02:15:38;99211.09;;;4.99;100.00
52319;BME280;38258;51.148;14.068;2023-05-18T02:18:05;99214.34;;;4.73;100.00
52319;BME280;38258;51.148;14.068;2023-05-18T02:20:33;99217.88;;;4.81;100.00
52319;BME280;38258;51.148;14.068;2023-05-18T02:23:03;99225.72;;;4.89;100.00
52319;BME280;38258;51.148;14.068;2023-05-18T02:25:29;99229.72;;;4.53;100.00
52319;BME280;38258;51.148;14.068;2023-05-18T02:27:56;99225.03;;;4.19;100.00
52319;BME280;38258;51.148;14.068;2023-05-18T02:30:22;99232.72;;;4.10;100.00
52319;BME280;38258;51.148;14.068;2023-05-18T02:32:51;99237.38;;;4.44;100.00
52319;BME280;38258;51.148;14.068;2023-05-18T02:35:17;99230.38;;;4.32;100.00
52319;BME280;38258;51.148;14.068;2023-05-18T02:37:44;99231.97;;;4.20;100.00
52319;BME280;38258;51.148;14.068;2023-05-18T02:40:12;99239.69;;;4.14;100.00
52319;BME280;38258;51.148;14.068;2023-05-18T02:42:40;99244.66;;;3.95;100.00
52319;BME280;38258;51.148;14.068;2023-05-18T02:45:08;99240.09;;;3.77;100.00
52319;BME280;38258;51.148;14.068;2023-05-18T02:47:34;99245.06;;;3.63;100.00
52319;BME280;38258;51.148;14.068;2023-05-18T02:50:03;99258.56;;;3.41;100.00
52319;BME280;38258;51.148;14.068;2023-05-18T02:52:30;99244.41;;;3.17;100.00
52319;BME280;38258;51.148;14.068;2023-05-18T02:54:58;99260.63;;;3.05;100.00
52319;BME280;38258;51.148;14.068;2023-05-18T02:57:40;99250.03;;;2.91;100.00
52319;BME280;38258;51.148;14.068;2023-05-18T03:00:12;99260.78;;;2.63;100.00
52319;BME280;38258;51.148;14.068;2023-05-18T03:02:41;99246.78;;;2.52;100.00
52319;BME280;38258;51.148;14.068;2023-05-18T03:05:10;99259.75;;;2.53;100.00
52319;BME280;38258;51.148;14.068;2023-05-18T03:07:36;99259.47;;;2.39;100.00
52319;BME280;38258;51.148;14.068;2023-05-18T03:10:04;99260.28;;;2.35;100.00
52319;BME280;38258;51.148;14.068;2023-05-18T03:12:32;99266.25;;;2.33;100.00
52319;BME280;38258;51.148;14.068;2023-05-18T03:14:58;99260.78;;;2.16;100.00
52319;BME280;38258;51.148;14.068;2023-05-18T03:17:25;99272.00;;;2.19;100.00
52319;BME280;38258;51.148;14.068;2023-05-18T03:19:51;99271.94;;;2.16;100.00
52319;BME280;38258;51.148;14.068;2023-05-18T03:22:19;99270.91;;;2.08;100.00
52319;BME280;38258;51.148;14.068;2023-05-18T03:24:46;99270.00;;;2.06;100.00
52319;BME280;38258;51.148;14.068;2023-05-18T03:27:16;99272.53;;;2.03;100.00
52319;BME280;38258;51.148;14.068;2023-05-18T03:29:44;99275.03;;;1.98;100.00
52319;BME280;38258;51.148;14.068;2023-05-18T03:32:12;99269.91;;;2.00;100.00
52319;BME280;38258;51.148;14.068;2023-05-18T03:34:38;99278.69;;;2.09;100.00
52319;BME280;38258;51.148;14.068;2023-05-18T03:37:05;99271.00;;;2.12;100.00
52319;BME280;38258;51.148;14.068;2023-05-18T03:39:33;99278.88;;;2.19;100.00
52319;BME280;38258;51.148;14.068;2023-05-18T03:42:00;99287.50;;;2.19;100.00
52319;BME280;38258;51.148;14.068;2023-05-18T03:44:27;99290.16;;;2.24;100.00
52319;BME280;38258;51.148;14.068;2023-05-18T03:46:54;99288.44;;;2.23;100.00
52319;BME280;38258;51.148;14.068;2023-05-18T03:49:20;99282.19;;;2.11;100.00
52319;BME280;38258;51.148;14.068;2023-05-18T03:51:47;99277.06;;;2.15;100.00
52319;BME280;38258;51.148;14.068;2023-05-18T03:54:14;99286.47;;;2.11;100.00
52319;BME280;38258;51.148;14.068;2023-05-18T03:56:42;99293.53;;;2.20;100.00
52319;BME280;38258;51.148;14.068;2023-05-18T03:59:08;99291.84;;;2.22;100.00
52319;BME280;38258;51.148;14.068;2023-05-18T04:01:36;99293.69;;;2.29;100.00
52319;BME280;38258;51.148;14.068;2023-05-18T04:04:06;99284.25;;;2.30;100.00
52319;BME280;38258;51.148;14.068;2023-05-18T04:06:33;99291.22;;;2.34;100.00
52319;BME280;38258;51.148;14.068;2023-05-18T04:09:00;99296.47;;;2.38;100.00
52319;BME280;38258;51.148;14.068;2023-05-18T04:11:29;99296.47;;;2.38;100.00
52319;BME280;38258;51.148;14.068;2023-05-18T04:13:56;99297.47;;;2.45;100.00
52319;BME280;38258;51.148;14.068;2023-05-18T04:16:25;99286.13;;;2.38;100.00
52319;BME280;38258;51.148;14.068;2023-05-18T04:18:52;99289.75;;;2.48;100.00
52319;BME280;38258;51.148;14.068;2023-05-18T04:21:19;99303.03;;;2.67;100.00
52319;BME280;38258;51.148;14.068;2023-05-18T04:23:45;99290.94;;;2.64;100.00
52319;BME280;38258;51.148;14.068;2023-05-18T04:26:12;99291.97;;;2.74;100.00
52319;BME280;38258;51.148;14.068;2023-05-18T04:28:45;99302.47;;;2.83;100.00
52319;BME280;38258;51.148;14.068;2023-05-18T04:31:14;99301.88;;;3.00;100.00
52319;BME280;38258;51.148;14.068;2023-05-18T04:33:42;99300.28;;;3.07;100.00
52319;BME280;38258;51.148;14.068;2023-05-18T04:36:11;99296.13;;;3.17;100.00
52319;BME280;38258;51.148;14.068;2023-05-18T04:38:38;99301.44;;;3.26;100.00
52319;BME280;38258;51.148;14.068;2023-05-18T04:41:04;99298.13;;;3.36;100.00
52319;BME280;38258;51.148;14.068;2023-05-18T04:43:32;99294.09;;;3.52;100.00
52319;BME280;38258;51.148;14.068;2023-05-18T04:46:00;99302.06;;;3.68;100.00
52319;BME280;38258;51.148;14.068;2023-05-18T04:48:29;99280.50;;;3.69;100.00
52319;BME280;38258;51.148;14.068;2023-05-18T04:50:56;99283.34;;;3.86;100.00
52319;BME280;38258;51.148;14.068;2023-05-18T04:53:23;99295.72;;;4.10;100.00
52319;BME280;38258;51.148;14.068;2023-05-18T04:55:52;99300.31;;;4.33;100.00
52319;BME280;38258;51.148;14.068;2023-05-18T04:58:19;99297.78;;;4.38;100.00
52319;BME280;38258;51.148;14.068;2023-05-18T05:00:45;99310.91;;;4.53;100.00
52319;BME280;38258;51.148;14.068;2023-05-18T05:03:12;99303.25;;;4.66;100.00
52319;BME280;38258;51.148;14.068;2023-05-18T05:05:40;99292.94;;;4.69;100.00
52319;BME280;38258;51.148;14.068;2023-05-18T05:08:07;99293.09;;;4.88;100.00
52319;BME280;38258;51.148;14.068;2023-05-18T05:10:33;99289.00;;;5.12;100.00
52319;BME280;38258;51.148;14.068;2023-05-18T05:13:00;99290.13;;;5.49;100.00
52319;BME280;38258;51.148;14.068;2023-05-18T05:15:27;99303.28;;;5.77;100.00
52319;BME280;38258;51.148;14.068;2023-05-18T05:17:54;99308.69;;;6.13;100.00
52319;BME280;38258;51.148;14.068;2023-05-18T05:20:21;99303.56;;;6.38;100.00
52319;BME280;38258;51.148;14.068;2023-05-18T05:22:49;99316.66;;;6.66;100.00
52319;BME280;38258;51.148;14.068;2023-05-18T05:25:21;99315.84;;;6.84;100.00
52319;BME280;38258;51.148;14.068;2023-05-18T05:27:48;99315.84;;;6.84;100.00
52319;BME280;38258;51.148;14.068;2023-05-18T05:30:17;99322.78;;;7.08;100.00
52319;BME280;38258;51.148;14.068;2023-05-18T05:32:44;99315.88;;;7.26;100.00
52319;BME280;38258;51.148;14.068;2023-05-18T05:35:11;99302.00;;;7.40;100.00
52319;BME280;38258;51.148;14.068;2023-05-18T05:37:38;99300.25;;;7.60;100.00
52319;BME280;38258;51.148;14.068;2023-05-18T05:40:09;99302.81;;;7.63;100.00
52319;BME280;38258;51.148;14.068;2023-05-18T05:42:41;99307.16;;;7.78;100.00
52319;BME280;38258;51.148;14.068;2023-05-18T05:45:09;99293.22;;;7.81;100.00
52319;BME280;38258;51.148;14.068;2023-05-18T05:47:42;99312.31;;;7.89;100.00
52319;BME280;38258;51.148;14.068;2023-05-18T05:50:09;99297.59;;;7.85;100.00
52319;BME280;38258;51.148;14.068;2023-05-18T05:52:36;99298.44;;;7.87;100.00
52319;BME280;38258;51.148;14.068;2023-05-18T05:55:04;99303.66;;;7.81;100.00
52319;BME280;38258;51.148;14.068;2023-05-18T05:57:33;99294.94;;;7.91;100.00
52319;BME280;38258;51.148;14.068;2023-05-18T05:59:59;99307.13;;;7.85;100.00
52319;BME280;38258;51.148;14.068;2023-05-18T06:02:26;99296.69;;;7.89;100.00
52319;BME280;38258;51.148;14.068;2023-05-18T06:04:54;99314.06;;;7.97;100.00
52319;BME280;38258;51.148;14.068;2023-05-18T06:07:20;99308.00;;;7.84;100.00
52319;BME280;38258;51.148;14.068;2023-05-18T06:09:47;99301.84;;;8.11;100.00
52319;BME280;38258;51.148;14.068;2023-05-18T06:12:14;99316.44;;;8.53;100.00
52319;BME280;38258;51.148;14.068;2023-05-18T06:14:42;99310.38;;;8.51;95.70
52319;BME280;38258;51.148;14.068;2023-05-18T06:17:09;99310.38;;;8.57;95.13
52319;BME280;38258;51.148;14.068;2023-05-18T06:19:36;99331.94;;;8.81;93.75
52319;BME280;38258;51.148;14.068;2023-05-18T06:22:03;99322.28;;;9.01;96.33
52319;BME280;38258;51.148;14.068;2023-05-18T06:24:37;99325.69;;;9.08;90.75
52319;BME280;38258;51.148;14.068;2023-05-18T06:27:33;99330.84;;;9.21;96.05
52319;BME280;38258;51.148;14.068;2023-05-18T06:30:35;99321.34;;;9.09;89.62
52319;BME280;38258;51.148;14.068;2023-05-18T06:33:11;99333.44;;;9.19;89.63
52319;BME280;38258;51.148;14.068;2023-05-18T06:35:38;99341.75;;;9.66;89.11
52319;BME280;38258;51.148;14.068;2023-05-18T06:38:06;99324.53;;;9.45;89.98
52319;BME280;38258;51.148;14.068;2023-05-18T06:40:33;99335.53;;;9.78;85.59
52319;BME280;38258;51.148;14.068;2023-05-18T06:47:33;99345.00;;;9.93;85.29
52319;BME280;38258;51.148;14.068;2023-05-18T06:50:00;99351.91;;;9.97;83.02
52319;BME280;38258;51.148;14.068;2023-05-18T06:52:26;99340.25;;;9.39;80.88
52319;BME280;38258;51.148;14.068;2023-05-18T06:54:53;99356.09;;;9.11;82.56
52319;BME280;38258;51.148;14.068;2023-05-18T06:57:20;99370.50;;;9.65;84.09
52319;BME280;38258;51.148;14.068;2023-05-18T06:59:46;99367.50;;;10.05;84.02
52319;BME280;38258;51.148;14.068;2023-05-18T07:02:17;99363.34;;;10.65;82.13
52319;BME280;38258;51.148;14.068;2023-05-18T07:04:46;99362.72;;;10.48;77.99
52319;BME280;38258;51.148;14.068;2023-05-18T07:07:13;99360.72;;;9.88;76.56
52319;BME280;38258;51.148;14.068;2023-05-18T07:09:41;99363.25;;;10.73;79.46
52319;BME280;38258;51.148;14.068;2023-05-18T07:12:09;99357.06;;;10.05;75.44
52319;BME280;38258;51.148;14.068;2023-05-18T07:14:36;99360.44;;;10.15;80.25
52319;BME280;38258;51.148;14.068;2023-05-18T07:17:03;99360.69;;;9.93;80.61
52319;BME280;38258;51.148;14.068;2023-05-18T07:19:31;99370.59;;;9.52;78.74
52319;BME280;38258;51.148;14.068;2023-05-18T07:21:59;99368.63;;;10.62;83.99
52319;BME280;38258;51.148;14.068;2023-05-18T07:24:26;99370.19;;;10.77;77.77
52319;BME280;38258;51.148;14.068;2023-05-18T07:26:53;99360.78;;;11.26;80.26
52319;BME280;38258;51.148;14.068;2023-05-18T07:29:19;99372.25;;;11.16;76.83
52319;BME280;38258;51.148;14.068;2023-05-18T07:31:46;99365.59;;;10.95;78.29
52319;BME280;38258;51.148;14.068;2023-05-18T07:34:13;99358.56;;;10.25;74.15
52319;BME280;38258;51.148;14.068;2023-05-18T07:36:39;99361.63;;;10.64;79.94
52319;BME280;38258;51.148;14.068;2023-05-18T07:39:07;99364.44;;;10.47;72.41
52319;BME280;38258;51.148;14.068;2023-05-18T07:41:41;99361.56;;;10.69;74.85
52319;BME280;38258;51.148;14.068;2023-05-18T07:44:08;99365.78;;;11.39;74.14
52319;BME280;38258;51.148;14.068;2023-05-18T07:46:35;99366.56;;;11.45;69.13
52319;BME280;38258;51.148;14.068;2023-05-18T07:49:01;99370.66;;;11.04;70.13
52319;BME280;38258;51.148;14.068;2023-05-18T07:51:28;99368.16;;;11.54;66.92
52319;BME280;38258;51.148;14.068;2023-05-18T07:53:54;99349.44;;;11.78;68.13
52319;BME280;38258;51.148;14.068;2023-05-18T07:56:23;99369.41;;;11.83;68.63
52319;BME280;38258;51.148;14.068;2023-05-18T07:58:50;99372.91;;;11.85;68.49
52319;BME280;38258;51.148;14.068;2023-05-18T08:01:16;99363.00;;;12.03;72.24
52319;BME280;38258;51.148;14.068;2023-05-18T08:03:43;99375.97;;;11.01;67.72
52319;BME280;38258;51.148;14.068;2023-05-18T08:06:10;99364.97;;;11.88;63.02
52319;BME280;38258;51.148;14.068;2023-05-18T08:08:36;99360.72;;;11.81;62.48
52319;BME280;38258;51.148;14.068;2023-05-18T08:11:04;99359.69;;;12.37;60.97
52319;BME280;38258;51.148;14.068;2023-05-18T08:13:32;99356.41;;;12.71;59.50
52319;BME280;38258;51.148;14.068;2023-05-18T08:15:59;99350.63;;;13.33;63.27
52319;BME280;38258;51.148;14.068;2023-05-18T08:18:25;99352.88;;;13.84;60.94
52319;BME280;38258;51.148;14.068;2023-05-18T08:20:52;99362.25;;;13.60;60.23
52319;BME280;38258;51.148;14.068;2023-05-18T08:23:19;99358.56;;;13.67;59.36
52319;BME280;38258;51.148;14.068;2023-05-18T08:25:46;99363.53;;;13.43;61.85
52319;BME280;38258;51.148;14.068;2023-05-18T08:28:13;99353.28;;;12.08;62.18
52319;BME280;38258;51.148;14.068;2023-05-18T08:30:40;99359.47;;;12.50;60.18
52319;BME280;38258;51.148;14.068;2023-05-18T08:33:07;99345.94;;;15.86;58.07
52319;BME280;38258;51.148;14.068;2023-05-18T08:35:34;99355.22;;;13.95;53.17
52319;BME280;38258;51.148;14.068;2023-05-18T08:38:00;99357.16;;;13.89;57.01
52319;BME280;38258;51.148;14.068;2023-05-18T08:40:32;99344.19;;;14.14;55.75
52319;BME280;38258;51.148;14.068;2023-05-18T08:43:06;99357.25;;;13.84;58.59
52319;BME280;38258;51.148;14.068;2023-05-18T08:45:39;99362.94;;;12.93;54.13
52319;BME280;38258;51.148;14.068;2023-05-18T08:48:09;99367.00;;;11.17;58.83
52319;BME280;38258;51.148;14.068;2023-05-18T08:50:37;99360.81;;;11.77;61.39
52319;BME280;38258;51.148;14.068;2023-05-18T08:53:05;99345.66;;;13.20;59.31
52319;BME280;38258;51.148;14.068;2023-05-18T08:55:32;99361.59;;;12.30;56.15
52319;BME280;38258;51.148;14.068;2023-05-18T08:58:01;99358.50;;;12.10;58.91
52319;BME280;38258;51.148;14.068;2023-05-18T09:00:28;99362.22;;;12.86;58.19
52319;BME280;38258;51.148;14.068;2023-05-18T09:02:55;99356.75;;;12.54;59.53
52319;BME280;38258;51.148;14.068;2023-05-18T09:05:23;99347.78;;;12.21;57.91
52319;BME280;38258;51.148;14.068;2023-05-18T09:07:50;99354.06;;;12.13;57.31
52319;BME280;38258;51.148;14.068;2023-05-18T09:10:17;99356.78;;;12.94;58.13
52319;BME280;38258;51.148;14.068;2023-05-18T09:12:45;99356.34;;;13.12;54.75
52319;BME280;38258;51.148;14.068;2023-05-18T09:15:14;99355.03;;;12.52;55.57
52319;BME280;38258;51.148;14.068;2023-05-18T09:17:41;99357.28;;;13.10;57.65
52319;BME280;38258;51.148;14.068;2023-05-18T09:20:08;99344.50;;;15.23;53.15
52319;BME280;38258;51.148;14.068;2023-05-18T09:22:38;99339.81;;;15.05;51.54
52319;BME280;38258;51.148;14.068;2023-05-18T09:25:07;99342.09;;;13.94;52.38
52319;BME280;38258;51.148;14.068;2023-05-18T09:27:35;99345.25;;;12.16;56.54
52319;BME280;38258;51.148;14.068;2023-05-18T09:30:02;99343.59;;;11.60;56.54
52319;BME280;38258;51.148;14.068;2023-05-18T09:32:33;99345.31;;;12.13;55.97
52319;BME280;38258;51.148;14.068;2023-05-18T09:35:03;99334.16;;;14.27;53.25
52319;BME280;38258;51.148;14.068;2023-05-18T09:37:31;99340.97;;;14.96;57.09
52319;BME280;38258;51.148;14.068;2023-05-18T09:40:02;99348.22;;;13.23;51.85
52319;BME280;38258;51.148;14.068;2023-05-18T09:42:37;99347.69;;;13.47;53.14
52319;BME280;38258;51.148;14.068;2023-05-18T09:45:14;99325.50;;;15.67;52.20
52319;BME280;38258;51.148;14.068;2023-05-18T09:47:41;99333.09;;;13.33;51.25
52319;BME280;38258;51.148;14.068;2023-05-18T09:50:08;99339.28;;;13.67;53.21
52319;BME280;38258;51.148;14.068;2023-05-18T09:52:40;99337.88;;;13.15;52.66
52319;BME280;38258;51.148;14.068;2023-05-18T09:55:09;99333.09;;;13.33;51.53
52319;BME280;38258;51.148;14.068;2023-05-18T09:57:38;99332.06;;;12.62;52.78
52319;BME280;38258;51.148;14.068;2023-05-18T10:00:07;99338.13;;;14.44;56.35
52319;BME280;38258;51.148;14.068;2023-05-18T10:02:37;99333.06;;;12.57;54.61
52319;BME280;38258;51.148;14.068;2023-05-18T10:05:05;99333.31;;;13.62;53.55
52319;BME280;38258;51.148;14.068;2023-05-18T10:07:33;99327.53;;;12.29;53.02
52319;BME280;38258;51.148;14.068;2023-05-18T10:10:02;99337.69;;;13.61;53.72
52319;BME280;38258;51.148;14.068;2023-05-18T10:12:30;99332.31;;;14.31;51.18
52319;BME280;38258;51.148;14.068;2023-05-18T10:14:57;99332.81;;;14.75;50.71
52319;BME280;38258;51.148;14.068;2023-05-18T10:17:24;99332.22;;;13.69;51.39
52319;BME280;38258;51.148;14.068;2023-05-18T10:19:54;99327.03;;;13.67;54.50
52319;BME280;38258;51.148;14.068;2023-05-18T10:22:24;99324.22;;;15.52;54.42
52319;BME280;38258;51.148;14.068;2023-05-18T10:24:51;99319.94;;;15.50;53.64
52319;BME280;38258;51.148;14.068;2023-05-18T10:27:22;99323.41;;;15.23;51.84
52319;BME280;38258;51.148;14.068;2023-05-18T10:29:52;99319.59;;;13.12;52.88
52319;BME280;38258;51.148;14.068;2023-05-18T10:32:21;99331.28;;;12.99;53.14
52319;BME280;38258;51.148;14.068;2023-05-18T10:34:51;99324.91;;;13.47;52.72
52319;BME280;38258;51.148;14.068;2023-05-18T10:37:21;99318.91;;;14.98;49.15
52319;BME280;38258;51.148;14.068;2023-05-18T10:39:50;99304.41;;;17.10;47.93
52319;BME280;38258;51.148;14.068;2023-05-18T10:42:17;99309.78;;;16.39;49.89
52319;BME280;38258;51.148;14.068;2023-05-18T10:44:46;99314.69;;;14.64;46.74
52319;BME280;38258;51.148;14.068;2023-05-18T10:47:14;99300.00;;;15.41;48.54
52319;BME280;38258;51.148;14.068;2023-05-18T10:49:41;99306.72;;;17.41;48.61
52319;BME280;38258;51.148;14.068;2023-05-18T10:52:10;99311.13;;;14.35;49.12
52319;BME280;38258;51.148;14.068;2023-05-18T10:54:38;99305.50;;;14.49;50.37
52319;BME280;38258;51.148;14.068;2023-05-18T10:57:05;99312.78;;;15.00;50.30
52319;BME280;38258;51.148;14.068;2023-05-18T10:59:38;99315.25;;;14.46;51.33
52319;BME280;38258;51.148;14.068;2023-05-18T11:02:06;99314.91;;;13.62;49.75
52319;BME280;38258;51.148;14.068;2023-05-18T11:04:37;99299.31;;;14.20;49.78
52319;BME280;38258;51.148;14.068;2023-05-18T11:07:04;99296.69;;;15.61;49.55
52319;BME280;38258;51.148;14.068;2023-05-18T11:09:35;99296.25;;;16.24;52.43
52319;BME280;38258;51.148;14.068;2023-05-18T11:12:02;99296.91;;;16.06;49.58
52319;BME280;38258;51.148;14.068;2023-05-18T11:14:46;99300.44;;;15.54;49.27
52319;BME280;38258;51.148;14.068;2023-05-18T11:17:14;99299.78;;;17.16;48.38
52319;BME280;38258;51.148;14.068;2023-05-18T11:20:15;99298.41;;;16.13;49.67
52319;BME280;38258;51.148;14.068;2023-05-18T11:22:49;99308.34;;;15.29;47.96
52319;BME280;38258;51.148;14.068;2023-05-18T11:25:37;99295.78;;;15.88;51.10
52319;BME280;38258;51.148;14.068;2023-05-18T11:28:06;99297.59;;;16.59;47.03
52319;BME280;38258;51.148;14.068;2023-05-18T11:30:45;99299.34;;;14.49;49.59
52319;BME280;38258;51.148;14.068;2023-05-18T11:33:13;99287.63;;;16.43;50.42
52319;BME280;38258;51.148;14.068;2023-05-18T11:35:56;99291.19;;;16.18;49.69
52319;BME280;38258;51.148;14.068;2023-05-18T11:38:44;99293.09;;;15.89;47.63
52319;BME280;38258;51.148;14.068;2023-05-18T11:41:29;99303.22;;;14.37;49.04
52319;BME280;38258;51.148;14.068;2023-05-18T11:44:14;99306.00;;;14.91;49.31
52319;BME280;38258;51.148;14.068;2023-05-18T11:46:50;99299.00;;;14.31;48.66
52319;BME280;38258;51.148;14.068;2023-05-18T11:49:19;99299.81;;;13.68;51.62
52319;BME280;38258;51.148;14.068;2023-05-18T11:51:55;99298.41;;;14.81;50.04
52319;BME280;38258;51.148;14.068;2023-05-18T11:54:23;99298.06;;;13.33;51.46
52319;BME280;38258;51.148;14.068;2023-05-18T11:56:51;99298.31;;;14.24;54.01
52319;BME280;38258;51.148;14.068;2023-05-18T11:59:29;99297.81;;;15.79;49.54
52319;BME280;38258;51.148;14.068;2023-05-18T12:01:57;99301.47;;;14.96;46.43
52319;BME280;38258;51.148;14.068;2023-05-18T12:04:24;99303.72;;;14.48;50.13
52319;BME280;38258;51.148;14.068;2023-05-18T12:06:52;99304.94;;;14.68;49.43
52319;BME280;38258;51.148;14.068;2023-05-18T12:09:20;99296.72;;;14.79;48.49
52319;BME280;38258;51.148;14.068;2023-05-18T12:11:47;99286.06;;;17.07;48.79
52319;BME280;38258;51.148;14.068;2023-05-18T12:14:13;99288.25;;;16.02;51.30
52319;BME280;38258;51.148;14.068;2023-05-18T12:16:40;99298.88;;;14.64;49.90
52319;BME280;38258;51.148;14.068;2023-05-18T12:19:07;99297.78;;;13.80;50.89
52319;BME280;38258;51.148;14.068;2023-05-18T12:21:34;99303.69;;;14.50;48.55
52319;BME280;38258;51.148;14.068;2023-05-18T12:24:01;99288.56;;;15.15;49.79
52319;BME280;38258;51.148;14.068;2023-05-18T12:26:29;99288.72;;;14.22;48.34
52319;BME280;38258;51.148;14.068;2023-05-18T12:28:57;99282.13;;;14.67;49.23
52319;BME280;38258;51.148;14.068;2023-05-18T12:31:25;99278.63;;;14.66;47.84
52319;BME280;38258;51.148;14.068;2023-05-18T12:33:52;99288.38;;;14.34;50.19
52319;BME280;38258;51.148;14.068;2023-05-18T12:36:19;99268.16;;;14.05;50.47
52319;BME280;38258;51.148;14.068;2023-05-18T12:38:47;99284.63;;;13.80;49.34
52319;BME280;38258;51.148;14.068;2023-05-18T12:41:21;99273.16;;;15.30;52.57
52319;BME280;38258;51.148;14.068;2023-05-18T12:43:49;99272.44;;;16.02;50.72
52319;BME280;38258;51.148;14.068;2023-05-18T12:46:16;99261.97;;;15.23;47.92
52319;BME280;38258;51.148;14.068;2023-05-18T12:48:45;99268.69;;;16.32;49.29
52319;BME280;38258;51.148;14.068;2023-05-18T12:51:16;99270.22;;;15.64;50.50
52319;BME280;38258;51.148;14.068;2023-05-18T12:53:43;99277.34;;;14.51;48.87
52319;BME280;38258;51.148;14.068;2023-05-18T12:56:09;99268.38;;;13.97;50.79
52319;BME280;38258;51.148;14.068;2023-05-18T12:58:37;99267.22;;;15.50;49.33
52319;BME280;38258;51.148;14.068;2023-05-18T13:01:10;99272.00;;;15.11;49.09
52319;BME280;38258;51.148;14.068;2023-05-18T13:03:38;99263.31;;;15.35;51.95